sensor_id;sensor_type;location;lat;lon;timestamp;P1;durP1;ratioP1;P2;durP2;ratioP2
13218;SDS011;6674;49.152;11.918;2023-02-14T00:00:17;34.10;;;26.00;;
13218;SDS011;6674;49.152;11.918;2023-02-14T00:02:47;37.40;;;27.13;;
13218;SDS011;6674;49.152;11.918;2023-02-14T00:05:16;35.50;;;26.13;;
13218;SDS011;6674;49.152;11.918;2023-02-14T00:07:43;31.30;;;23.80;;
13218;SDS011;6674;49.152;11.918;2023-02-14T00:10:10;32.50;;;22.73;;
13218;SDS011;6674;49.152;11.918;2023-02-14T00:12:37;29.67;;;22.07;;
13218;SDS011;6674;49.152;11.918;2023-02-14T00:15:05;35.40;;;27.47;;
13218;SDS011;6674;49.152;11.918;2023-02-14T00:17:48;26.30;;;20.17;;
13218;SDS011;6674;49.152;11.918;2023-02-14T00:20:16;26.50;;;20.63;;
13218;SDS011;6674;49.152;11.918;2023-02-14T00:22:44;25.83;;;19.57;;
13218;SDS011;6674;49.152;11.918;2023-02-14T00:25:12;23.93;;;19.40;;
13218;SDS011;6674;49.152;11.918;2023-02-14T00:27:38;28.00;;;22.70;;
13218;SDS011;6674;49.152;11.918;2023-02-14T00:30:06;25.07;;;19.87;;
13218;SDS011;6674;49.152;11.918;2023-02-14T00:32:36;28.10;;;21.73;;
13218;SDS011;6674;49.152;11.918;2023-02-14T00:35:05;23.33;;;19.30;;
13218;SDS011;6674;49.152;11.918;2023-02-14T00:37:32;26.10;;;20.27;;
13218;SDS011;6674;49.152;11.918;2023-02-14T00:39:59;24.77;;;19.63;;
13218;SDS011;6674;49.152;11.918;2023-02-14T00:42:26;26.27;;;20.90;;
13218;SDS011;6674;49.152;11.918;2023-02-14T00:44:53;21.53;;;16.93;;
13218;SDS011;6674;49.152;11.918;2023-02-14T00:47:19;23.33;;;18.90;;
13218;SDS011;6674;49.152;11.918;2023-02-14T00:49:53;23.20;;;17.63;;
13218;SDS011;6674;49.152;11.918;2023-02-14T00:52:21;25.83;;;19.90;;
13218;SDS011;6674;49.152;11.918;2023-02-14T00:54:48;24.77;;;19.27;;
13218;SDS011;6674;49.152;11.918;2023-02-14T00:57:15;22.30;;;18.90;;
13218;SDS011;6674;49.152;11.918;2023-02-14T00:59:41;23.70;;;19.97;;
13218;SDS011;6674;49.152;11.918;2023-02-14T01:02:08;28.17;;;21.03;;
13218;SDS011;6674;49.152;11.918;2023-02-14T01:04:34;26.60;;;20.33;;
13218;SDS011;6674;49.152;11.918;2023-02-14T01:07:01;25.57;;;18.83;;
13218;SDS011;6674;49.152;11.918;2023-02-14T01:09:29;24.17;;;19.40;;
13218;SDS011;6674;49.152;11.918;2023-02-14T01:11:56;25.63;;;19.90;;
13218;SDS011;6674;49.152;11.918;2023-02-14T01:14:22;25.60;;;19.50;;
13218;SDS011;6674;49.152;11.918;2023-02-14T01:16:49;24.27;;;19.17;;
13218;SDS011;6674;49.152;11.918;2023-02-14T01:19:16;23.97;;;19.40;;
13218;SDS011;6674;49.152;11.918;2023-02-14T01:21:44;23.57;;;19.53;;
13218;SDS011;6674;49.152;11.918;2023-02-14T01:24:11;23.90;;;18.37;;
13218;SDS011;6674;49.152;11.918;2023-02-14T01:26:39;30.00;;;23.40;;
13218;SDS011;6674;49.152;11.918;2023-02-14T01:29:06;23.43;;;19.13;;
13218;SDS011;6674;49.152;11.918;2023-02-14T01:31:33;25.33;;;19.80;;
13218;SDS011;6674;49.152;11.918;2023-02-14T01:34:00;27.27;;;20.70;;
13218;SDS011;6674;49.152;11.918;2023-02-14T01:36:28;23.87;;;18.37;;
13218;SDS011;6674;49.152;11.918;2023-02-14T01:38:57;21.83;;;17.67;;
13218;SDS011;6674;49.152;11.918;2023-02-14T01:41:27;23.47;;;17.70;;
13218;SDS011;6674;49.152;11.918;2023-02-14T01:43:57;23.43;;;18.33;;
13218;SDS011;6674;49.152;11.918;2023-02-14T01:46:26;24.97;;;18.80;;
13218;SDS011;6674;49.152;11.918;2023-02-14T01:48:54;22.10;;;17.83;;
13218;SDS011;6674;49.152;11.918;2023-02-14T01:51:26;19.57;;;15.97;;
13218;SDS011;6674;49.152;11.918;2023-02-14T01:53:53;22.27;;;17.73;;
13218;SDS011;6674;49.152;11.918;2023-02-14T01:56:22;21.10;;;16.83;;
13218;SDS011;6674;49.152;11.918;2023-02-14T01:58:52;20.70;;;16.10;;
13218;SDS011;6674;49.152;11.918;2023-02-14T02:01:24;23.17;;;18.37;;
13218;SDS011;6674;49.152;11.918;2023-02-14T02:03:52;24.70;;;19.47;;
13218;SDS011;6674;49.152;11.918;2023-02-14T02:06:22;24.10;;;19.13;;
13218;SDS011;6674;49.152;11.918;2023-02-14T02:08:54;25.87;;;20.87;;
13218;SDS011;6674;49.152;11.918;2023-02-14T02:11:28;22.07;;;17.30;;
13218;SDS011;6674;49.152;11.918;2023-02-14T02:13:55;20.97;;;16.47;;
13218;SDS011;6674;49.152;11.918;2023-02-14T02:16:27;20.80;;;15.67;;
13218;SDS011;6674;49.152;11.918;2023-02-14T02:19:08;20.43;;;16.87;;
13218;SDS011;6674;49.152;11.918;2023-02-14T02:25:11;28.67;;;22.03;;
13218;SDS011;6674;49.152;11.918;2023-02-14T02:31:01;21.70;;;16.50;;
13218;SDS011;6674;49.152;11.918;2023-02-14T02:33:55;25.47;;;19.33;;
13218;SDS011;6674;49.152;11.918;2023-02-14T02:39:40;27.03;;;19.63;;
13218;SDS011;6674;49.152;11.918;2023-02-14T02:42:23;32.77;;;24.17;;
13218;SDS011;6674;49.152;11.918;2023-02-14T02:45:01;32.67;;;23.93;;
13218;SDS011;6674;49.152;11.918;2023-02-14T02:47:38;30.93;;;22.73;;
13218;SDS011;6674;49.152;11.918;2023-02-14T02:50:12;37.30;;;25.70;;
13218;SDS011;6674;49.152;11.918;2023-02-14T02:53:05;33.57;;;23.43;;
13218;SDS011;6674;49.152;11.918;2023-02-14T02:55:41;34.87;;;24.03;;
13218;SDS011;6674;49.152;11.918;2023-02-14T02:58:29;36.93;;;23.73;;
13218;SDS011;6674;49.152;11.918;2023-02-14T03:00:58;37.83;;;24.67;;
13218;SDS011;6674;49.152;11.918;2023-02-14T03:03:29;37.60;;;25.03;;
13218;SDS011;6674;49.152;11.918;2023-02-14T03:06:15;32.87;;;22.07;;
13218;SDS011;6674;49.152;11.918;2023-02-14T03:08:43;30.97;;;22.07;;
13218;SDS011;6674;49.152;11.918;2023-02-14T03:11:10;32.20;;;22.83;;
13218;SDS011;6674;49.152;11.918;2023-02-14T03:13:43;30.97;;;22.03;;
13218;SDS011;6674;49.152;11.918;2023-02-14T03:16:29;37.10;;;25.83;;
13218;SDS011;6674;49.152;11.918;2023-02-14T03:19:16;29.87;;;20.90;;
13218;SDS011;6674;49.152;11.918;2023-02-14T03:22:12;33.23;;;23.27;;
13218;SDS011;6674;49.152;11.918;2023-02-14T03:24:49;32.47;;;22.03;;
13218;SDS011;6674;49.152;11.918;2023-02-14T03:27:24;35.03;;;24.03;;
13218;SDS011;6674;49.152;11.918;2023-02-14T03:29:55;39.00;;;24.33;;
13218;SDS011;6674;49.152;11.918;2023-02-14T03:32:30;33.47;;;22.57;;
13218;SDS011;6674;49.152;11.918;2023-02-14T03:35:04;34.97;;;22.77;;
13218;SDS011;6674;49.152;11.918;2023-02-14T03:37:38;29.27;;;20.53;;
13218;SDS011;6674;49.152;11.918;2023-02-14T03:40:12;29.13;;;21.33;;
13218;SDS011;6674;49.152;11.918;2023-02-14T03:42:44;31.00;;;21.97;;
13218;SDS011;6674;49.152;11.918;2023-02-14T03:45:15;29.57;;;21.13;;
13218;SDS011;6674;49.152;11.918;2023-02-14T03:47:47;31.20;;;20.97;;
13218;SDS011;6674;49.152;11.918;2023-02-14T03:50:17;35.23;;;22.70;;
13218;SDS011;6674;49.152;11.918;2023-02-14T03:52:45;32.93;;;21.83;;
13218;SDS011;6674;49.152;11.918;2023-02-14T03:55:16;29.50;;;19.97;;
13218;SDS011;6674;49.152;11.918;2023-02-14T03:57:50;31.30;;;21.80;;
13218;SDS011;6674;49.152;11.918;2023-02-14T04:00:21;37.67;;;24.07;;
13218;SDS011;6674;49.152;11.918;2023-02-14T04:02:48;32.33;;;22.30;;
13218;SDS011;6674;49.152;11.918;2023-02-14T04:05:21;37.93;;;23.73;;
13218;SDS011;6674;49.152;11.918;2023-02-14T04:07:50;40.97;;;22.27;;
13218;SDS011;6674;49.152;11.918;2023-02-14T04:10:20;56.83;;;23.40;;
13218;SDS011;6674;49.152;11.918;2023-02-14T04:12:48;36.43;;;22.57;;
13218;SDS011;6674;49.152;11.918;2023-02-14T04:15:16;34.27;;;21.20;;
13218;SDS011;6674;49.152;11.918;2023-02-14T04:17:42;27.17;;;18.20;;
13218;SDS011;6674;49.152;11.918;2023-02-14T04:20:30;25.83;;;17.80;;
13218;SDS011;6674;49.152;11.918;2023-02-14T04:23:01;28.73;;;19.70;;
13218;SDS011;6674;49.152;11.918;2023-02-14T04:25:29;27.93;;;18.97;;
13218;SDS011;6674;49.152;11.918;2023-02-14T04:27:56;27.10;;;18.70;;
13218;SDS011;6674;49.152;11.918;2023-02-14T04:30:22;27.10;;;19.13;;
13218;SDS011;6674;49.152;11.918;2023-02-14T04:32:49;33.07;;;20.57;;
13218;SDS011;6674;49.152;11.918;2023-02-14T04:35:16;28.53;;;19.13;;
13218;SDS011;6674;49.152;11.918;2023-02-14T04:37:42;39.20;;;21.33;;
13218;SDS011;6674;49.152;11.918;2023-02-14T04:40:10;25.47;;;17.67;;
13218;SDS011;6674;49.152;11.918;2023-02-14T04:42:42;39.97;;;21.37;;
13218;SDS011;6674;49.152;11.918;2023-02-14T04:45:08;37.00;;;19.90;;
13218;SDS011;6674;49.152;11.918;2023-02-14T04:47:35;25.27;;;18.73;;
13218;SDS011;6674;49.152;11.918;2023-02-14T04:50:02;23.37;;;16.47;;
13218;SDS011;6674;49.152;11.918;2023-02-14T04:52:30;38.13;;;20.80;;
13218;SDS011;6674;49.152;11.918;2023-02-14T04:54:56;43.50;;;22.03;;
13218;SDS011;6674;49.152;11.918;2023-02-14T04:57:23;51.27;;;23.07;;
13218;SDS011;6674;49.152;11.918;2023-02-14T04:59:51;26.63;;;18.10;;
13218;SDS011;6674;49.152;11.918;2023-02-14T05:02:18;23.83;;;17.13;;
13218;SDS011;6674;49.152;11.918;2023-02-14T05:04:56;26.10;;;17.33;;
13218;SDS011;6674;49.152;11.918;2023-02-14T05:07:23;22.67;;;16.50;;
13218;SDS011;6674;49.152;11.918;2023-02-14T05:09:50;23.90;;;16.13;;
13218;SDS011;6674;49.152;11.918;2023-02-14T05:12:16;27.33;;;18.37;;
13218;SDS011;6674;49.152;11.918;2023-02-14T05:14:44;32.30;;;19.83;;
13218;SDS011;6674;49.152;11.918;2023-02-14T05:17:13;47.43;;;22.27;;
13218;SDS011;6674;49.152;11.918;2023-02-14T05:19:40;34.97;;;21.30;;
13218;SDS011;6674;49.152;11.918;2023-02-14T05:22:07;29.07;;;18.30;;
13218;SDS011;6674;49.152;11.918;2023-02-14T05:24:34;22.50;;;15.70;;
13218;SDS011;6674;49.152;11.918;2023-02-14T05:27:00;23.23;;;16.97;;
13218;SDS011;6674;49.152;11.918;2023-02-14T05:29:27;20.47;;;14.63;;
13218;SDS011;6674;49.152;11.918;2023-02-14T05:31:53;26.27;;;18.50;;
13218;SDS011;6674;49.152;11.918;2023-02-14T05:34:21;22.23;;;16.17;;
13218;SDS011;6674;49.152;11.918;2023-02-14T05:36:48;21.43;;;16.13;;
13218;SDS011;6674;49.152;11.918;2023-02-14T05:39:15;34.07;;;18.67;;
13218;SDS011;6674;49.152;11.918;2023-02-14T05:41:41;17.47;;;12.77;;
13218;SDS011;6674;49.152;11.918;2023-02-14T05:44:10;19.50;;;13.97;;
13218;SDS011;6674;49.152;11.918;2023-02-14T05:46:36;21.37;;;15.60;;
13218;SDS011;6674;49.152;11.918;2023-02-14T05:49:03;24.60;;;17.93;;
13218;SDS011;6674;49.152;11.918;2023-02-14T05:51:32;24.43;;;18.07;;
13218;SDS011;6674;49.152;11.918;2023-02-14T05:53:59;27.77;;;17.47;;
13218;SDS011;6674;49.152;11.918;2023-02-14T05:56:25;19.40;;;15.17;;
13218;SDS011;6674;49.152;11.918;2023-02-14T05:58:52;21.30;;;15.70;;
13218;SDS011;6674;49.152;11.918;2023-02-14T06:01:19;21.90;;;16.20;;
13218;SDS011;6674;49.152;11.918;2023-02-14T06:03:45;22.93;;;16.37;;
13218;SDS011;6674;49.152;11.918;2023-02-14T06:06:12;20.83;;;14.80;;
13218;SDS011;6674;49.152;11.918;2023-02-14T06:08:41;23.63;;;17.90;;
13218;SDS011;6674;49.152;11.918;2023-02-14T06:11:07;149.63;;;75.20;;
13218;SDS011;6674;49.152;11.918;2023-02-14T06:13:34;98.20;;;54.77;;
13218;SDS011;6674;49.152;11.918;2023-02-14T06:16:01;36.10;;;23.07;;
13218;SDS011;6674;49.152;11.918;2023-02-14T06:18:28;27.73;;;20.03;;
13218;SDS011;6674;49.152;11.918;2023-02-14T06:20:55;27.03;;;19.20;;
13218;SDS011;6674;49.152;11.918;2023-02-14T06:23:22;29.27;;;21.27;;
13218;SDS011;6674;49.152;11.918;2023-02-14T06:25:50;23.50;;;17.60;;
13218;SDS011;6674;49.152;11.918;2023-02-14T06:28:16;26.10;;;18.60;;
13218;SDS011;6674;49.152;11.918;2023-02-14T06:30:44;42.17;;;20.37;;
13218;SDS011;6674;49.152;11.918;2023-02-14T06:33:11;27.33;;;18.30;;
13218;SDS011;6674;49.152;11.918;2023-02-14T06:35:38;21.73;;;15.20;;
13218;SDS011;6674;49.152;11.918;2023-02-14T06:38:04;25.40;;;18.73;;
13218;SDS011;6674;49.152;11.918;2023-02-14T06:40:31;28.87;;;20.57;;
13218;SDS011;6674;49.152;11.918;2023-02-14T06:42:59;33.87;;;22.77;;
13218;SDS011;6674;49.152;11.918;2023-02-14T06:45:26;58.27;;;35.70;;
13218;SDS011;6674;49.152;11.918;2023-02-14T06:47:52;35.87;;;25.50;;
13218;SDS011;6674;49.152;11.918;2023-02-14T06:50:25;33.83;;;24.07;;
13218;SDS011;6674;49.152;11.918;2023-02-14T06:52:51;39.53;;;27.53;;
13218;SDS011;6674;49.152;11.918;2023-02-14T06:55:18;39.67;;;28.20;;
13218;SDS011;6674;49.152;11.918;2023-02-14T06:57:45;31.27;;;18.43;;
13218;SDS011;6674;49.152;11.918;2023-02-14T07:00:13;19.57;;;15.73;;
13218;SDS011;6674;49.152;11.918;2023-02-14T07:02:40;21.00;;;15.60;;
13218;SDS011;6674;49.152;11.918;2023-02-14T07:05:07;22.40;;;15.87;;
13218;SDS011;6674;49.152;11.918;2023-02-14T07:07:34;24.77;;;19.10;;
13218;SDS011;6674;49.152;11.918;2023-02-14T07:10:01;26.87;;;20.93;;
13218;SDS011;6674;49.152;11.918;2023-02-14T07:12:27;31.97;;;18.87;;
13218;SDS011;6674;49.152;11.918;2023-02-14T07:14:54;24.13;;;19.07;;
13218;SDS011;6674;49.152;11.918;2023-02-14T07:17:23;22.63;;;17.63;;
13218;SDS011;6674;49.152;11.918;2023-02-14T07:19:50;18.67;;;15.07;;
13218;SDS011;6674;49.152;11.918;2023-02-14T07:22:16;65.57;;;21.30;;
13218;SDS011;6674;49.152;11.918;2023-02-14T07:24:43;26.90;;;18.63;;
13218;SDS011;6674;49.152;11.918;2023-02-14T07:27:09;21.97;;;16.63;;
13218;SDS011;6674;49.152;11.918;2023-02-14T07:29:36;27.50;;;18.43;;
13218;SDS011;6674;49.152;11.918;2023-02-14T07:32:03;83.77;;;24.03;;
13218;SDS011;6674;49.152;11.918;2023-02-14T07:34:31;46.93;;;23.70;;
13218;SDS011;6674;49.152;11.918;2023-02-14T07:36:58;27.53;;;20.10;;
13218;SDS011;6674;49.152;11.918;2023-02-14T07:39:26;23.47;;;17.73;;
13218;SDS011;6674;49.152;11.918;2023-02-14T07:41:53;41.17;;;23.63;;
13218;SDS011;6674;49.152;11.918;2023-02-14T07:44:20;69.80;;;25.37;;
13218;SDS011;6674;49.152;11.918;2023-02-14T07:46:46;25.20;;;18.67;;
13218;SDS011;6674;49.152;11.918;2023-02-14T07:49:13;25.47;;;20.30;;
13218;SDS011;6674;49.152;11.918;2023-02-14T07:51:41;27.47;;;19.87;;
13218;SDS011;6674;49.152;11.918;2023-02-14T07:54:08;27.70;;;20.87;;
13218;SDS011;6674;49.152;11.918;2023-02-14T07:56:34;165.67;;;31.27;;
13218;SDS011;6674;49.152;11.918;2023-02-14T07:59:01;34.17;;;22.10;;
13218;SDS011;6674;49.152;11.918;2023-02-14T08:01:28;30.93;;;21.33;;
13218;SDS011;6674;49.152;11.918;2023-02-14T08:03:55;30.20;;;20.77;;
13218;SDS011;6674;49.152;11.918;2023-02-14T08:06:22;103.87;;;25.73;;
13218;SDS011;6674;49.152;11.918;2023-02-14T08:08:51;258.27;;;34.83;;
13218;SDS011;6674;49.152;11.918;2023-02-14T08:11:18;31.50;;;21.77;;
13218;SDS011;6674;49.152;11.918;2023-02-14T08:13:58;86.60;;;23.93;;
13218;SDS011;6674;49.152;11.918;2023-02-14T08:16:25;33.70;;;19.77;;
13218;SDS011;6674;49.152;11.918;2023-02-14T08:18:51;24.27;;;17.80;;
13218;SDS011;6674;49.152;11.918;2023-02-14T08:21:18;26.83;;;17.73;;
13218;SDS011;6674;49.152;11.918;2023-02-14T08:23:45;22.60;;;17.17;;
13218;SDS011;6674;49.152;11.918;2023-02-14T08:26:13;24.57;;;17.53;;
13218;SDS011;6674;49.152;11.918;2023-02-14T08:28:39;26.13;;;19.30;;
13218;SDS011;6674;49.152;11.918;2023-02-14T08:31:06;32.10;;;21.13;;
13218;SDS011;6674;49.152;11.918;2023-02-14T08:33:32;22.90;;;17.40;;
13218;SDS011;6674;49.152;11.918;2023-02-14T08:35:59;29.50;;;19.27;;
13218;SDS011;6674;49.152;11.918;2023-02-14T08:38:26;143.53;;;22.83;;
13218;SDS011;6674;49.152;11.918;2023-02-14T08:40:53;56.50;;;18.80;;
13218;SDS011;6674;49.152;11.918;2023-02-14T08:43:21;92.30;;;21.57;;
13218;SDS011;6674;49.152;11.918;2023-02-14T08:45:50;20.97;;;15.07;;
13218;SDS011;6674;49.152;11.918;2023-02-14T08:48:18;19.00;;;14.53;;
13218;SDS011;6674;49.152;11.918;2023-02-14T08:50:47;20.77;;;15.43;;
13218;SDS011;6674;49.152;11.918;2023-02-14T08:53:14;19.87;;;15.33;;
13218;SDS011;6674;49.152;11.918;2023-02-14T08:55:41;103.90;;;21.90;;
13218;SDS011;6674;49.152;11.918;2023-02-14T08:58:07;69.20;;;20.33;;
13218;SDS011;6674;49.152;11.918;2023-02-14T09:00:35;154.80;;;23.47;;
13218;SDS011;6674;49.152;11.918;2023-02-14T09:03:02;25.83;;;15.93;;
13218;SDS011;6674;49.152;11.918;2023-02-14T09:05:30;155.60;;;24.33;;
13218;SDS011;6674;49.152;11.918;2023-02-14T09:07:57;120.97;;;22.20;;
13218;SDS011;6674;49.152;11.918;2023-02-14T09:10:24;96.20;;;22.33;;
13218;SDS011;6674;49.152;11.918;2023-02-14T09:12:52;106.63;;;22.93;;
13218;SDS011;6674;49.152;11.918;2023-02-14T09:15:19;60.97;;;19.80;;
13218;SDS011;6674;49.152;11.918;2023-02-14T09:17:46;79.90;;;22.50;;
13218;SDS011;6674;49.152;11.918;2023-02-14T09:20:16;49.97;;;18.10;;
13218;SDS011;6674;49.152;11.918;2023-02-14T09:22:42;29.73;;;17.50;;
13218;SDS011;6674;49.152;11.918;2023-02-14T09:25:09;22.70;;;16.67;;
13218;SDS011;6674;49.152;11.918;2023-02-14T09:27:36;20.07;;;15.00;;
13218;SDS011;6674;49.152;11.918;2023-02-14T09:30:03;27.83;;;17.87;;
13218;SDS011;6674;49.152;11.918;2023-02-14T09:32:30;25.50;;;17.17;;
13218;SDS011;6674;49.152;11.918;2023-02-14T09:34:58;39.43;;;19.73;;
13218;SDS011;6674;49.152;11.918;2023-02-14T09:37:42;26.93;;;17.87;;
13218;SDS011;6674;49.152;11.918;2023-02-14T09:40:28;70.97;;;20.53;;
13218;SDS011;6674;49.152;11.918;2023-02-14T09:42:58;91.37;;;24.50;;
13218;SDS011;6674;49.152;11.918;2023-02-14T09:45:33;103.43;;;23.93;;
13218;SDS011;6674;49.152;11.918;2023-02-14T09:48:02;73.47;;;22.27;;
13218;SDS011;6674;49.152;11.918;2023-02-14T09:50:35;21.17;;;14.37;;
13218;SDS011;6674;49.152;11.918;2023-02-14T09:53:07;24.17;;;16.73;;
13218;SDS011;6674;49.152;11.918;2023-02-14T09:55:45;41.57;;;18.70;;
13218;SDS011;6674;49.152;11.918;2023-02-14T09:58:17;29.33;;;18.50;;
13218;SDS011;6674;49.152;11.918;2023-02-14T10:00:51;28.07;;;18.60;;
13218;SDS011;6674;49.152;11.918;2023-02-14T10:06:36;22.23;;;15.80;;
13218;SDS011;6674;49.152;11.918;2023-02-14T10:09:10;47.53;;;20.13;;
13218;SDS011;6674;49.152;11.918;2023-02-14T10:11:47;75.43;;;22.47;;
13218;SDS011;6674;49.152;11.918;2023-02-14T10:14:14;36.07;;;20.83;;
13218;SDS011;6674;49.152;11.918;2023-02-14T10:16:51;55.63;;;20.97;;
13218;SDS011;6674;49.152;11.918;2023-02-14T10:19:22;97.53;;;22.97;;
13218;SDS011;6674;49.152;11.918;2023-02-14T10:21:55;59.73;;;21.40;;
13218;SDS011;6674;49.152;11.918;2023-02-14T10:24:26;65.63;;;20.60;;
13218;SDS011;6674;49.152;11.918;2023-02-14T10:26:56;27.70;;;17.23;;
13218;SDS011;6674;49.152;11.918;2023-02-14T10:29:28;62.90;;;21.50;;
13218;SDS011;6674;49.152;11.918;2023-02-14T10:31:56;28.87;;;17.67;;
13218;SDS011;6674;49.152;11.918;2023-02-14T10:34:26;27.17;;;17.97;;
13218;SDS011;6674;49.152;11.918;2023-02-14T10:37:07;28.67;;;17.80;;
13218;SDS011;6674;49.152;11.918;2023-02-14T10:40:00;53.67;;;21.03;;
13218;SDS011;6674;49.152;11.918;2023-02-14T10:42:35;25.53;;;16.27;;
13218;SDS011;6674;49.152;11.918;2023-02-14T10:45:11;26.07;;;18.27;;
13218;SDS011;6674;49.152;11.918;2023-02-14T10:47:44;24.37;;;15.63;;
13218;SDS011;6674;49.152;11.918;2023-02-14T10:50:20;48.13;;;18.67;;
13218;SDS011;6674;49.152;11.918;2023-02-14T10:52:57;26.43;;;16.63;;
13218;SDS011;6674;49.152;11.918;2023-02-14T10:55:37;20.23;;;14.50;;
13218;SDS011;6674;49.152;11.918;2023-02-14T10:58:09;31.77;;;19.03;;
13218;SDS011;6674;49.152;11.918;2023-02-14T11:00:39;22.27;;;14.57;;
13218;SDS011;6674;49.152;11.918;2023-02-14T11:03:17;35.17;;;18.37;;
13218;SDS011;6674;49.152;11.918;2023-02-14T11:05:44;26.90;;;18.03;;
13218;SDS011;6674;49.152;11.918;2023-02-14T11:08:14;23.40;;;15.50;;
13218;SDS011;6674;49.152;11.918;2023-02-14T11:10:49;21.67;;;15.90;;
13218;SDS011;6674;49.152;11.918;2023-02-14T11:13:32;24.27;;;16.50;;
13218;SDS011;6674;49.152;11.918;2023-02-14T11:16:01;20.30;;;14.93;;
13218;SDS011;6674;49.152;11.918;2023-02-14T11:18:29;23.90;;;16.43;;
13218;SDS011;6674;49.152;11.918;2023-02-14T11:21:02;19.70;;;13.50;;
13218;SDS011;6674;49.152;11.918;2023-02-14T11:23:35;18.60;;;13.50;;
13218;SDS011;6674;49.152;11.918;2023-02-14T11:26:04;24.93;;;16.60;;
13218;SDS011;6674;49.152;11.918;2023-02-14T11:28:34;32.77;;;14.90;;
13218;SDS011;6674;49.152;11.918;2023-02-14T11:31:09;27.90;;;15.67;;
13218;SDS011;6674;49.152;11.918;2023-02-14T11:33:37;33.57;;;16.67;;
13218;SDS011;6674;49.152;11.918;2023-02-14T11:36:08;59.40;;;17.57;;
13218;SDS011;6674;49.152;11.918;2023-02-14T11:38:39;21.30;;;13.60;;
13218;SDS011;6674;49.152;11.918;2023-02-14T11:41:07;18.37;;;13.00;;
13218;SDS011;6674;49.152;11.918;2023-02-14T11:43:37;28.00;;;15.77;;
13218;SDS011;6674;49.152;11.918;2023-02-14T11:46:06;32.63;;;16.97;;
13218;SDS011;6674;49.152;11.918;2023-02-14T11:48:47;31.40;;;16.17;;
13218;SDS011;6674;49.152;11.918;2023-02-14T11:51:27;32.43;;;15.93;;
13218;SDS011;6674;49.152;11.918;2023-02-14T11:54:02;19.83;;;13.03;;
13218;SDS011;6674;49.152;11.918;2023-02-14T11:56:55;18.07;;;12.13;;
13218;SDS011;6674;49.152;11.918;2023-02-14T11:59:29;18.97;;;12.43;;
13218;SDS011;6674;49.152;11.918;2023-02-14T12:02:16;17.30;;;13.27;;
13218;SDS011;6674;49.152;11.918;2023-02-14T12:04:50;17.33;;;12.57;;
13218;SDS011;6674;49.152;11.918;2023-02-14T12:07:21;17.67;;;11.83;;
13218;SDS011;6674;49.152;11.918;2023-02-14T12:12:55;14.37;;;10.70;;
13218;SDS011;6674;49.152;11.918;2023-02-14T12:15:34;18.23;;;12.27;;
13218;SDS011;6674;49.152;11.918;2023-02-14T12:18:20;15.73;;;11.40;;
13218;SDS011;6674;49.152;11.918;2023-02-14T12:21:20;18.23;;;13.33;;
13218;SDS011;6674;49.152;11.918;2023-02-14T12:24:08;17.27;;;11.83;;
13218;SDS011;6674;49.152;11.918;2023-02-14T12:26:43;17.50;;;12.37;;
13218;SDS011;6674;49.152;11.918;2023-02-14T12:29:17;14.77;;;11.00;;
13218;SDS011;6674;49.152;11.918;2023-02-14T12:31:50;16.07;;;11.47;;
13218;SDS011;6674;49.152;11.918;2023-02-14T12:34:18;17.40;;;11.87;;
13218;SDS011;6674;49.152;11.918;2023-02-14T12:36:52;16.60;;;12.27;;
13218;SDS011;6674;49.152;11.918;2023-02-14T12:39:34;19.33;;;13.67;;
13218;SDS011;6674;49.152;11.918;2023-02-14T12:42:10;18.00;;;12.27;;
13218;SDS011;6674;49.152;11.918;2023-02-14T12:44:49;16.57;;;11.47;;
13218;SDS011;6674;49.152;11.918;2023-02-14T12:47:24;14.27;;;11.00;;
13218;SDS011;6674;49.152;11.918;2023-02-14T12:50:13;16.87;;;11.50;;
13218;SDS011;6674;49.152;11.918;2023-02-14T12:52:59;19.47;;;12.70;;
13218;SDS011;6674;49.152;11.918;2023-02-14T12:58:27;16.67;;;11.53;;
13218;SDS011;6674;49.152;11.918;2023-02-14T13:01:05;17.73;;;13.17;;
13218;SDS011;6674;49.152;11.918;2023-02-14T13:03:59;16.87;;;11.80;;
13218;SDS011;6674;49.152;11.918;2023-02-14T13:06:37;16.03;;;11.23;;
13218;SDS011;6674;49.152;11.918;2023-02-14T13:09:09;16.00;;;12.00;;
13218;SDS011;6674;49.152;11.918;2023-02-14T13:11:50;16.00;;;11.20;;
13218;SDS011;6674;49.152;11.918;2023-02-14T13:14:34;16.03;;;11.77;;
13218;SDS011;6674;49.152;11.918;2023-02-14T13:17:10;12.73;;;10.13;;
13218;SDS011;6674;49.152;11.918;2023-02-14T13:19:48;18.83;;;12.30;;
13218;SDS011;6674;49.152;11.918;2023-02-14T13:22:21;16.17;;;11.00;;
13218;SDS011;6674;49.152;11.918;2023-02-14T13:24:50;14.20;;;10.57;;
13218;SDS011;6674;49.152;11.918;2023-02-14T13:27:21;17.87;;;12.83;;
13218;SDS011;6674;49.152;11.918;2023-02-14T13:29:52;15.63;;;11.67;;
13218;SDS011;6674;49.152;11.918;2023-02-14T13:32:22;16.13;;;11.07;;
13218;SDS011;6674;49.152;11.918;2023-02-14T13:34:52;16.87;;;11.97;;
13218;SDS011;6674;49.152;11.918;2023-02-14T13:37:20;15.37;;;11.40;;
13218;SDS011;6674;49.152;11.918;2023-02-14T13:39:52;12.97;;;10.57;;
13218;SDS011;6674;49.152;11.918;2023-02-14T13:48:19;15.37;;;11.50;;
13218;SDS011;6674;49.152;11.918;2023-02-14T13:50:49;18.00;;;13.03;;
13218;SDS011;6674;49.152;11.918;2023-02-14T13:53:28;16.33;;;10.90;;
13218;SDS011;6674;49.152;11.918;2023-02-14T13:55:57;17.90;;;11.93;;
13218;SDS011;6674;49.152;11.918;2023-02-14T13:58:24;14.07;;;10.50;;
13218;SDS011;6674;49.152;11.918;2023-02-14T14:00:53;14.00;;;11.27;;
13218;SDS011;6674;49.152;11.918;2023-02-14T14:06:20;15.70;;;11.53;;
13218;SDS011;6674;49.152;11.918;2023-02-14T14:08:47;16.30;;;11.17;;
13218;SDS011;6674;49.152;11.918;2023-02-14T14:14:33;14.77;;;10.63;;
13218;SDS011;6674;49.152;11.918;2023-02-14T14:17:14;13.67;;;10.57;;
13218;SDS011;6674;49.152;11.918;2023-02-14T14:19:44;19.27;;;14.70;;
13218;SDS011;6674;49.152;11.918;2023-02-14T14:22:12;16.13;;;11.70;;
13218;SDS011;6674;49.152;11.918;2023-02-14T14:24:40;18.33;;;13.63;;
13218;SDS011;6674;49.152;11.918;2023-02-14T14:27:18;15.83;;;13.17;;
13218;SDS011;6674;49.152;11.918;2023-02-14T14:29:48;16.00;;;11.40;;
13218;SDS011;6674;49.152;11.918;2023-02-14T14:32:23;15.93;;;11.23;;
13218;SDS011;6674;49.152;11.918;2023-02-14T14:34:53;14.67;;;10.93;;
13218;SDS011;6674;49.152;11.918;2023-02-14T14:37:22;16.43;;;11.53;;
13218;SDS011;6674;49.152;11.918;2023-02-14T14:39:51;17.47;;;12.37;;
13218;SDS011;6674;49.152;11.918;2023-02-14T14:42:18;15.97;;;12.07;;
13218;SDS011;6674;49.152;11.918;2023-02-14T14:44:48;14.27;;;11.00;;
13218;SDS011;6674;49.152;11.918;2023-02-14T14:47:20;17.40;;;12.73;;
13218;SDS011;6674;49.152;11.918;2023-02-14T14:49:50;13.63;;;10.63;;
13218;SDS011;6674;49.152;11.918;2023-02-14T14:52:23;16.63;;;12.13;;
13218;SDS011;6674;49.152;11.918;2023-02-14T14:54:55;14.43;;;10.50;;
13218;SDS011;6674;49.152;11.918;2023-02-14T14:57:23;15.17;;;10.87;;
13218;SDS011;6674;49.152;11.918;2023-02-14T15:00:02;15.50;;;11.40;;
13218;SDS011;6674;49.152;11.918;2023-02-14T15:02:32;15.23;;;11.63;;
13218;SDS011;6674;49.152;11.918;2023-02-14T15:05:09;18.93;;;12.63;;
13218;SDS011;6674;49.152;11.918;2023-02-14T15:07:44;16.20;;;12.03;;
13218;SDS011;6674;49.152;11.918;2023-02-14T15:10:19;17.17;;;12.00;;
13218;SDS011;6674;49.152;11.918;2023-02-14T15:12:48;17.93;;;14.03;;